sensor_id;sensor_type;location;lat;lon;timestamp;pressure;altitude;pressure_sealevel;temperature;humidity
36788;BME280;22738;45.560;9.434;2023-03-03T00:00:50;99960.09;;;8.28;100.00
36788;BME280;22738;45.560;9.434;2023-03-03T00:07:31;99947.78;;;8.33;100.00
36788;BME280;22738;45.560;9.434;2023-03-03T00:14:21;99941.31;;;8.42;100.00
36788;BME280;22738;45.560;9.434;2023-03-03T00:21:14;99938.31;;;8.49;100.00
36788;BME280;22738;45.560;9.434;2023-03-03T00:28:07;99939.38;;;8.61;100.00
36788;BME280;22738;45.560;9.434;2023-03-03T00:35:07;99931.97;;;8.71;100.00
36788;BME280;22738;45.560;9.434;2023-03-03T00:41:58;99934.31;;;8.75;100.00
36788;BME280;22738;45.560;9.434;2023-03-03T00:48:41;99931.16;;;8.86;100.00
36788;BME280;22738;45.560;9.434;2023-03-03T00:55:23;99917.13;;;8.90;100.00
36788;BME280;22738;45.560;9.434;2023-03-03T01:02:04;99921.38;;;8.91;100.00
36788;BME280;22738;45.560;9.434;2023-03-03T01:08:45;99924.16;;;8.88;100.00
36788;BME280;22738;45.560;9.434;2023-03-03T01:15:27;99914.13;;;8.82;100.00
36788;BME280;22738;45.560;9.434;2023-03-03T01:22:08;99911.63;;;8.80;100.00
36788;BME280;22738;45.560;9.434;2023-03-03T01:28:49;99900.06;;;8.72;100.00
36788;BME280;22738;45.560;9.434;2023-03-03T01:35:31;99900.31;;;8.51;100.00
36788;BME280;22738;45.560;9.434;2023-03-03T01:42:12;99896.50;;;8.10;100.00
36788;BME280;22738;45.560;9.434;2023-03-03T01:48:57;99885.81;;;8.01;100.00
36788;BME280;22738;45.560;9.434;2023-03-03T01:55:44;99877.53;;;7.78;100.00
36788;BME280;22738;45.560;9.434;2023-03-03T02:02:26;99876.75;;;7.61;100.00
36788;BME280;22738;45.560;9.434;2023-03-03T02:09:22;99866.03;;;7.51;100.00
36788;BME280;22738;45.560;9.434;2023-03-03T02:16:06;99871.00;;;7.22;100.00
36788;BME280;22738;45.560;9.434;2023-03-03T02:23:01;99856.44;;;7.03;100.00
36788;BME280;22738;45.560;9.434;2023-03-03T02:29:46;99848.09;;;6.98;100.00
36788;BME280;22738;45.560;9.434;2023-03-03T02:36:33;99842.47;;;7.07;100.00
36788;BME280;22738;45.560;9.434;2023-03-03T02:43:16;99832.78;;;6.95;100.00
36788;BME280;22738;45.560;9.434;2023-03-03T02:49:59;99828.81;;;6.71;100.00
36788;BME280;22738;45.560;9.434;2023-03-03T02:56:41;99830.25;;;6.60;100.00
36788;BME280;22738;45.560;9.434;2023-03-03T03:03:22;99826.38;;;6.68;100.00
36788;BME280;22738;45.560;9.434;2023-03-03T03:10:04;99823.53;;;6.74;100.00
36788;BME280;22738;45.560;9.434;2023-03-03T03:16:49;99817.63;;;6.89;100.00
36788;BME280;22738;45.560;9.434;2023-03-03T03:23:31;99814.28;;;6.87;100.00
36788;BME280;22738;45.560;9.434;2023-03-03T03:30:13;99820.25;;;6.71;100.00
36788;BME280;22738;45.560;9.434;2023-03-03T03:36:55;99808.97;;;6.56;100.00
36788;BME280;22738;45.560;9.434;2023-03-03T03:43:38;99813.16;;;6.40;100.00
36788;BME280;22738;45.560;9.434;2023-03-03T03:50:20;99810.69;;;6.20;100.00
36788;BME280;22738;45.560;9.434;2023-03-03T03:57:01;99815.00;;;6.01;100.00
36788;BME280;22738;45.560;9.434;2023-03-03T04:03:44;99816.19;;;5.94;100.00
36788;BME280;22738;45.560;9.434;2023-03-03T04:10:29;99810.00;;;5.98;100.00
36788;BME280;22738;45.560;9.434;2023-03-03T04:17:21;99810.19;;;5.93;100.00
36788;BME280;22738;45.560;9.434;2023-03-03T04:24:04;99802.06;;;5.84;100.00
36788;BME280;22738;45.560;9.434;2023-03-03T04:30:45;99806.22;;;5.67;100.00
36788;BME280;22738;45.560;9.434;2023-03-03T04:37:30;99805.59;;;5.42;100.00
36788;BME280;22738;45.560;9.434;2023-03-03T04:44:11;99805.09;;;5.14;100.00
36788;BME280;22738;45.560;9.434;2023-03-03T04:50:54;99801.50;;;5.18;100.00
36788;BME280;22738;45.560;9.434;2023-03-03T04:57:35;99802.81;;;4.88;100.00
36788;BME280;22738;45.560;9.434;2023-03-03T05:04:17;99797.19;;;4.78;100.00
36788;BME280;22738;45.560;9.434;2023-03-03T05:10:58;99790.16;;;4.62;100.00
36788;BME280;22738;45.560;9.434;2023-03-03T05:17:42;99793.47;;;4.44;100.00
36788;BME280;22738;45.560;9.434;2023-03-03T05:24:23;99792.44;;;4.48;100.00
36788;BME280;22738;45.560;9.434;2023-03-03T05:31:04;99801.06;;;4.47;100.00
36788;BME280;22738;45.560;9.434;2023-03-03T05:37:45;99801.91;;;4.47;100.00
36788;BME280;22738;45.560;9.434;2023-03-03T05:44:27;99791.28;;;4.34;100.00
36788;BME280;22738;45.560;9.434;2023-03-03T05:51:11;99792.94;;;4.36;100.00
36788;BME280;22738;45.560;9.434;2023-03-03T05:57:52;99793.41;;;4.02;100.00
36788;BME280;22738;45.560;9.434;2023-03-03T06:04:33;99805.72;;;4.15;100.00
36788;BME280;22738;45.560;9.434;2023-03-03T06:11:14;99814.94;;;4.41;100.00
36788;BME280;22738;45.560;9.434;2023-03-03T06:17:57;99806.72;;;4.55;100.00
36788;BME280;22738;45.560;9.434;2023-03-03T06:24:38;99811.53;;;4.62;100.00
36788;BME280;22738;45.560;9.434;2023-03-03T06:31:19;99819.78;;;4.49;100.00
36788;BME280;22738;45.560;9.434;2023-03-03T06:38:00;99829.59;;;4.61;100.00
36788;BME280;22738;45.560;9.434;2023-03-03T06:44:41;99828.56;;;5.27;100.00
36788;BME280;22738;45.560;9.434;2023-03-03T06:51:30;99821.88;;;5.61;100.00
36788;BME280;22738;45.560;9.434;2023-03-03T06:58:18;99842.25;;;6.05;100.00
36788;BME280;22738;45.560;9.434;2023-03-03T07:05:00;99837.22;;;6.39;100.00
36788;BME280;22738;45.560;9.434;2023-03-03T07:11:41;99839.25;;;6.68;100.00
36788;BME280;22738;45.560;9.434;2023-03-03T07:25:33;99840.34;;;7.15;100.00
36788;BME280;22738;45.560;9.434;2023-03-03T07:32:39;99845.06;;;7.74;100.00
36788;BME280;22738;45.560;9.434;2023-03-03T07:39:29;99852.50;;;8.44;100.00
36788;BME280;22738;45.560;9.434;2023-03-03T07:46:25;99843.00;;;9.20;100.00
36788;BME280;22738;45.560;9.434;2023-03-03T07:53:14;99853.78;;;9.70;100.00
36788;BME280;22738;45.560;9.434;2023-03-03T08:06:58;99857.09;;;13.97;100.00
36788;BME280;22738;45.560;9.434;2023-03-03T08:13:41;99857.53;;;14.58;100.00
36788;BME280;22738;45.560;9.434;2023-03-03T08:27:16;99869.09;;;15.81;100.00
36788;BME280;22738;45.560;9.434;2023-03-03T08:33:57;99869.38;;;16.17;100.00
36788;BME280;22738;45.560;9.434;2023-03-03T08:40:39;99877.53;;;17.69;100.00
36788;BME280;22738;45.560;9.434;2023-03-03T08:47:20;99875.19;;;18.67;87.44
36788;BME280;22738;45.560;9.434;2023-03-03T08:54:01;99872.88;;;16.86;100.00
36788;BME280;22738;45.560;9.434;2023-03-03T09:00:43;99869.94;;;16.61;100.00
36788;BME280;22738;45.560;9.434;2023-03-03T09:07:25;99870.75;;;14.77;100.00
36788;BME280;22738;45.560;9.434;2023-03-03T09:14:14;99867.34;;;15.08;100.00
36788;BME280;22738;45.560;9.434;2023-03-03T09:20:55;99871.41;;;15.53;100.00
36788;BME280;22738;45.560;9.434;2023-03-03T09:27:37;99867.47;;;15.27;100.00
36788;BME280;22738;45.560;9.434;2023-03-03T09:34:23;99874.94;;;15.32;100.00
36788;BME280;22738;45.560;9.434;2023-03-03T10:22:34;99889.03;;;16.42;100.00
36788;BME280;22738;45.560;9.434;2023-03-03T10:29:34;99887.44;;;16.60;100.00
36788;BME280;22738;45.560;9.434;2023-03-03T10:44:01;99880.22;;;16.13;100.00
36788;BME280;22738;45.560;9.434;2023-03-03T11:05:03;99880.81;;;16.56;100.00
36788;BME280;22738;45.560;9.434;2023-03-03T11:26:13;99864.38;;;16.05;100.00
36788;BME280;22738;45.560;9.434;2023-03-03T11:39:44;99850.88;;;16.00;100.00
36788;BME280;22738;45.560;9.434;2023-03-03T11:46:33;99856.44;;;15.55;100.00
36788;BME280;22738;45.560;9.434;2023-03-03T11:53:26;99853.31;;;15.92;100.00
36788;BME280;22738;45.560;9.434;2023-03-03T12:00:31;99836.25;;;15.88;100.00
36788;BME280;22738;45.560;9.434;2023-03-03T12:07:43;99838.56;;;15.91;100.00
36788;BME280;22738;45.560;9.434;2023-03-03T12:28:54;99815.84;;;15.51;100.00
36788;BME280;22738;45.560;9.434;2023-03-03T12:35:44;99804.78;;;15.27;100.00
36788;BME280;22738;45.560;9.434;2023-03-03T12:56:44;99792.06;;;15.54;100.00
36788;BME280;22738;45.560;9.434;2023-03-03T13:03:38;99795.31;;;15.26;100.00
36788;BME280;22738;45.560;9.434;2023-03-03T13:10:49;99788.31;;;15.47;100.00
36788;BME280;22738;45.560;9.434;2023-03-03T13:31:21;99784.22;;;15.54;100.00
36788;BME280;22738;45.560;9.434;2023-03-03T13:38:03;99788.44;;;15.46;100.00
36788;BME280;22738;45.560;9.434;2023-03-03T13:44:48;99783.66;;;15.30;100.00
36788;BME280;22738;45.560;9.434;2023-03-03T13:51:52;99772.63;;;15.47;100.00
36788;BME280;22738;45.560;9.434;2023-03-03T14:05:36;99776.97;;;15.17;100.00
36788;BME280;22738;45.560;9.434;2023-03-03T14:12:21;99776.38;;;15.54;100.00
36788;BME280;22738;45.560;9.434;2023-03-03T14:19:14;99779.22;;;15.72;100.00
36788;BME280;22738;45.560;9.434;2023-03-03T14:39:44;99763.09;;;16.07;94.33
36788;BME280;22738;45.560;9.434;2023-03-03T14:46:34;99757.81;;;15.88;95.68
36788;BME280;22738;45.560;9.434;2023-03-03T14:53:36;99754.22;;;15.89;95.93
36788;BME280;22738;45.560;9.434;2023-03-03T15:07:18;99760.34;;;16.08;91.08
36788;BME280;22738;45.560;9.434;2023-03-03T15:14:14;99760.63;;;15.65;96.95
36788;BME280;22738;45.560;9.434;2023-03-03T15:21:12;99749.72;;;15.30;95.76
36788;BME280;22738;45.560;9.434;2023-03-03T15:28:09;99755.78;;;15.51;96.57
36788;BME280;22738;45.560;9.434;2023-03-03T15:42:20;99754.84;;;15.41;95.69
36788;BME280;22738;45.560;9.434;2023-03-03T15:56:45;99752.78;;;14.73;100.00
36788;BME280;22738;45.560;9.434;2023-03-03T16:03:32;99757.25;;;14.82;100.00
36788;BME280;22738;45.560;9.434;2023-03-03T16:31:52;99764.63;;;14.46;100.00
36788;BME280;22738;45.560;9.434;2023-03-03T16:38:43;99764.66;;;14.35;100.00
36788;BME280;22738;45.560;9.434;2023-03-03T16:45:32;99786.00;;;14.17;100.00
36788;BME280;22738;45.560;9.434;2023-03-03T16:52:22;99799.75;;;13.97;100.00
36788;BME280;22738;45.560;9.434;2023-03-03T17:06:44;99803.22;;;13.65;100.00
36788;BME280;22738;45.560;9.434;2023-03-03T17:13:51;99811.84;;;13.54;100.00
36788;BME280;22738;45.560;9.434;2023-03-03T17:20:46;99819.13;;;13.27;100.00
36788;BME280;22738;45.560;9.434;2023-03-03T17:55:31;99845.03;;;11.60;100.00
36788;BME280;22738;45.560;9.434;2023-03-03T18:02:28;99848.16;;;11.39;100.00
36788;BME280;22738;45.560;9.434;2023-03-03T18:30:24;99889.50;;;10.77;100.00
36788;BME280;22738;45.560;9.434;2023-03-03T18:44:01;99892.41;;;10.58;100.00
36788;BME280;22738;45.560;9.434;2023-03-03T18:50:46;99902.06;;;10.42;100.00
36788;BME280;22738;45.560;9.434;2023-03-03T18:57:29;99910.59;;;10.30;100.00
36788;BME280;22738;45.560;9.434;2023-03-03T19:04:17;99913.38;;;10.13;100.00
36788;BME280;22738;45.560;9.434;2023-03-03T19:11:00;99923.59;;;10.00;100.00
36788;BME280;22738;45.560;9.434;2023-03-03T19:17:47;99924.41;;;9.72;100.00
36788;BME280;22738;45.560;9.434;2023-03-03T19:24:32;99910.34;;;9.62;100.00
36788;BME280;22738;45.560;9.434;2023-03-03T19:31:23;99920.03;;;9.45;100.00
36788;BME280;22738;45.560;9.434;2023-03-03T19:45:15;99928.47;;;9.03;100.00
36788;BME280;22738;45.560;9.434;2023-03-03T19:52:21;99930.47;;;8.98;100.00
36788;BME280;22738;45.560;9.434;2023-03-03T20:27:07;99979.31;;;8.71;100.00
36788;BME280;22738;45.560;9.434;2023-03-03T20:34:00;99998.66;;;8.64;100.00
36788;BME280;22738;45.560;9.434;2023-03-03T20:47:57;100001.44;;;8.28;100.00
36788;BME280;22738;45.560;9.434;2023-03-03T20:55:15;100010.94;;;8.43;100.00
36788;BME280;22738;45.560;9.434;2023-03-03T21:08:54;100006.66;;;8.75;100.00
36788;BME280;22738;45.560;9.434;2023-03-03T21:15:36;100017.34;;;8.85;100.00
36788;BME280;22738;45.560;9.434;2023-03-03T21:22:17;100018.69;;;8.92;100.00
36788;BME280;22738;45.560;9.434;2023-03-03T21:28:59;100017.00;;;8.91;100.00
36788;BME280;22738;45.560;9.434;2023-03-03T21:35:56;100030.28;;;9.00;100.00
36788;BME280;22738;45.560;9.434;2023-03-03T21:42:42;100037.38;;;8.97;100.00
36788;BME280;22738;45.560;9.434;2023-03-03T21:49:24;100032.03;;;9.00;100.00
36788;BME280;22738;45.560;9.434;2023-03-03T21:56:06;100037.53;;;9.09;100.00
36788;BME280;22738;45.560;9.434;2023-03-03T22:02:47;100023.75;;;9.09;100.00
36788;BME280;22738;45.560;9.434;2023-03-03T22:09:28;100033.03;;;9.13;100.00
36788;BME280;22738;45.560;9.434;2023-03-03T22:16:09;100045.19;;;9.11;100.00
36788;BME280;22738;45.560;9.434;2023-03-03T22:22:53;100044.03;;;9.01;100.00
36788;BME280;22738;45.560;9.434;2023-03-03T22:29:34;100037.03;;;9.03;100.00
36788;BME280;22738;45.560;9.434;2023-03-03T22:36:16;100044.44;;;9.24;100.00
36788;BME280;22738;45.560;9.434;2023-03-03T22:42:59;100046.81;;;9.29;100.00
36788;BME280;22738;45.560;9.434;2023-03-03T22:49:40;100053.22;;;9.22;100.00
36788;BME280;22738;45.560;9.434;2023-03-03T22:56:21;100048.09;;;9.36;100.00
36788;BME280;22738;45.560;9.434;2023-03-03T23:03:05;100050.19;;;9.45;100.00
36788;BME280;22738;45.560;9.434;2023-03-03T23:09:46;100053.72;;;9.44;100.00
36788;BME280;22738;45.560;9.434;2023-03-03T23:16:27;100050.88;;;9.49;100.00
36788;BME280;22738;45.560;9.434;2023-03-03T23:23:08;100057.13;;;9.45;100.00
36788;BME280;22738;45.560;9.434;2023-03-03T23:29:49;100050.72;;;9.52;100.00
36788;BME280;22738;45.560;9.434;2023-03-03T23:36:32;100048.03;;;9.53;100.00
36788;BME280;22738;45.560;9.434;2023-03-03T23:43:13;100049.03;;;9.35;100.00
36788;BME280;22738;45.560;9.434;2023-03-03T23:49:54;100062.13;;;9.32;100.00
36788;BME280;22738;45.560;9.434;2023-03-03T23:56:35;100074.72;;;8.91;100.00
